Minter, Alabama
Current Conditions -  °F | °C
As of 8:55 AM on Saturday 01 Nov 2014 (Local Time) from KSEM Reporting Station
Clear Clear  
Wind Chill: 32°   Ceiling: Unl
Heat Index: 41°   Visibility: 10mi
Dew Point: 27°   Wind: 21mph
Humidity: 57%   Direction: 320°NW
Pressure: 30.25"   Gusts: NA
Location:  32.08°N, 86.99°W
Report Text: KSEM 011355Z AUTO 32018KT 10SM CLR 05/M03 A3025 RMK AO2
Loading
Personal Weather Stations






























Interactive Weather Map
Tropical Storm Tracking
New forecast layout! Learn more

10-Day Weather Forecast

Advertisements
Track Severe Weather on mobile